sensor_id;sensor_type;location;lat;lon;timestamp;temperature;humidity
19555;DHT22;9924;50.828;6.440;2023-04-30T00:02:11;7.10;99.90
19555;DHT22;9924;50.828;6.440;2023-04-30T00:04:57;7.10;99.90
19555;DHT22;9924;50.828;6.440;2023-04-30T00:07:45;7.10;99.90
19555;DHT22;9924;50.828;6.440;2023-04-30T00:10:33;7.10;99.90
19555;DHT22;9924;50.828;6.440;2023-04-30T00:13:29;7.00;99.90
19555;DHT22;9924;50.828;6.440;2023-04-30T00:16:13;7.00;99.90
19555;DHT22;9924;50.828;6.440;2023-04-30T00:18:58;7.00;99.90
19555;DHT22;9924;50.828;6.440;2023-04-30T00:21:47;6.90;99.90
19555;DHT22;9924;50.828;6.440;2023-04-30T00:24:32;6.90;99.90
19555;DHT22;9924;50.828;6.440;2023-04-30T00:27:19;6.90;99.90
19555;DHT22;9924;50.828;6.440;2023-04-30T00:30:08;6.90;99.90
19555;DHT22;9924;50.828;6.440;2023-04-30T00:32:56;6.80;99.90
19555;DHT22;9924;50.828;6.440;2023-04-30T00:38:40;6.80;99.90
19555;DHT22;9924;50.828;6.440;2023-04-30T00:41:29;6.80;99.90
19555;DHT22;9924;50.828;6.440;2023-04-30T00:44:14;6.70;99.90
19555;DHT22;9924;50.828;6.440;2023-04-30T00:47:08;6.50;99.90
19555;DHT22;9924;50.828;6.440;2023-04-30T00:50:02;6.50;99.90
19555;DHT22;9924;50.828;6.440;2023-04-30T00:52:49;6.20;99.90
19555;DHT22;9924;50.828;6.440;2023-04-30T00:55:40;6.20;99.90
19555;DHT22;9924;50.828;6.440;2023-04-30T00:58:27;6.20;99.90
19555;DHT22;9924;50.828;6.440;2023-04-30T01:01:14;6.20;99.90
19555;DHT22;9924;50.828;6.440;2023-04-30T01:04:00;6.20;99.90
19555;DHT22;9924;50.828;6.440;2023-04-30T01:06:45;6.30;99.90
19555;DHT22;9924;50.828;6.440;2023-04-30T01:09:33;6.30;99.90
19555;DHT22;9924;50.828;6.440;2023-04-30T01:19:04;6.10;99.90
19555;DHT22;9924;50.828;6.440;2023-04-30T01:22:00;6.10;99.90
19555;DHT22;9924;50.828;6.440;2023-04-30T01:28:22;6.10;99.90
19555;DHT22;9924;50.828;6.440;2023-04-30T01:31:18;6.10;99.90
19555;DHT22;9924;50.828;6.440;2023-04-30T01:34:04;6.00;99.90
19555;DHT22;9924;50.828;6.440;2023-04-30T01:40:39;6.00;99.90
19555;DHT22;9924;50.828;6.440;2023-04-30T01:53:36;5.90;99.90
19555;DHT22;9924;50.828;6.440;2023-04-30T01:56:32;5.80;99.90
19555;DHT22;9924;50.828;6.440;2023-04-30T01:59:22;5.70;99.90
19555;DHT22;9924;50.828;6.440;2023-04-30T02:02:07;5.60;99.90
19555;DHT22;9924;50.828;6.440;2023-04-30T02:04:52;5.60;99.90
19555;DHT22;9924;50.828;6.440;2023-04-30T02:07:56;5.60;99.90
19555;DHT22;9924;50.828;6.440;2023-04-30T02:11:00;5.60;99.90
19555;DHT22;9924;50.828;6.440;2023-04-30T02:13:49;5.50;99.90
19555;DHT22;9924;50.828;6.440;2023-04-30T02:16:37;5.50;99.90
19555;DHT22;9924;50.828;6.440;2023-04-30T02:19:24;5.50;99.90
19555;DHT22;9924;50.828;6.440;2023-04-30T02:22:12;5.50;99.90
19555;DHT22;9924;50.828;6.440;2023-04-30T02:24:57;5.40;99.90
19555;DHT22;9924;50.828;6.440;2023-04-30T02:27:43;5.30;99.90
19555;DHT22;9924;50.828;6.440;2023-04-30T02:30:33;5.30;99.90
19555;DHT22;9924;50.828;6.440;2023-04-30T02:33:21;5.30;99.90
19555;DHT22;9924;50.828;6.440;2023-04-30T02:36:13;5.30;99.90
19555;DHT22;9924;50.828;6.440;2023-04-30T02:38:58;5.30;99.90
19555;DHT22;9924;50.828;6.440;2023-04-30T02:41:45;5.30;99.90
19555;DHT22;9924;50.828;6.440;2023-04-30T02:44:31;5.40;99.90
19555;DHT22;9924;50.828;6.440;2023-04-30T02:47:22;5.40;99.90
19555;DHT22;9924;50.828;6.440;2023-04-30T02:50:09;5.40;99.90
19555;DHT22;9924;50.828;6.440;2023-04-30T02:52:56;5.30;99.90
19555;DHT22;9924;50.828;6.440;2023-04-30T02:55:45;5.30;99.90
19555;DHT22;9924;50.828;6.440;2023-04-30T02:58:31;5.30;99.90
19555;DHT22;9924;50.828;6.440;2023-04-30T03:01:17;5.20;99.90
19555;DHT22;9924;50.828;6.440;2023-04-30T03:04:30;5.20;99.90
19555;DHT22;9924;50.828;6.440;2023-04-30T03:07:20;5.10;99.90
19555;DHT22;9924;50.828;6.440;2023-04-30T03:10:05;5.10;99.90
19555;DHT22;9924;50.828;6.440;2023-04-30T03:12:57;5.00;99.90
19555;DHT22;9924;50.828;6.440;2023-04-30T03:16:25;5.00;99.90
19555;DHT22;9924;50.828;6.440;2023-04-30T03:18:52;4.90;99.90
19555;DHT22;9924;50.828;6.440;2023-04-30T03:21:36;4.80;99.90
19555;DHT22;9924;50.828;6.440;2023-04-30T03:24:21;4.70;99.90
19555;DHT22;9924;50.828;6.440;2023-04-30T03:27:27;4.70;99.90
19555;DHT22;9924;50.828;6.440;2023-04-30T03:30:13;4.70;99.90
19555;DHT22;9924;50.828;6.440;2023-04-30T03:32:59;4.70;99.90
19555;DHT22;9924;50.828;6.440;2023-04-30T03:35:45;4.70;99.90
19555;DHT22;9924;50.828;6.440;2023-04-30T03:38:30;4.70;99.90
19555;DHT22;9924;50.828;6.440;2023-04-30T03:41:15;4.70;99.90
19555;DHT22;9924;50.828;6.440;2023-04-30T03:44:08;4.70;99.90
19555;DHT22;9924;50.828;6.440;2023-04-30T03:46:59;4.60;99.90
19555;DHT22;9924;50.828;6.440;2023-04-30T03:49:45;4.60;99.90
19555;DHT22;9924;50.828;6.440;2023-04-30T03:52:37;4.50;99.90
19555;DHT22;9924;50.828;6.440;2023-04-30T03:55:52;4.50;99.90
19555;DHT22;9924;50.828;6.440;2023-04-30T03:58:38;4.40;99.90
19555;DHT22;9924;50.828;6.440;2023-04-30T04:01:28;4.40;99.90
19555;DHT22;9924;50.828;6.440;2023-04-30T04:04:17;4.40;99.90
19555;DHT22;9924;50.828;6.440;2023-04-30T04:07:02;4.30;99.90
19555;DHT22;9924;50.828;6.440;2023-04-30T04:09:50;4.30;99.90
19555;DHT22;9924;50.828;6.440;2023-04-30T04:12:50;4.30;99.90
19555;DHT22;9924;50.828;6.440;2023-04-30T04:15:35;4.40;99.90
19555;DHT22;9924;50.828;6.440;2023-04-30T04:18:23;4.40;99.90
19555;DHT22;9924;50.828;6.440;2023-04-30T04:21:10;4.40;99.90
19555;DHT22;9924;50.828;6.440;2023-04-30T04:24:04;4.40;99.90
19555;DHT22;9924;50.828;6.440;2023-04-30T04:26:52;4.40;99.90
19555;DHT22;9924;50.828;6.440;2023-04-30T04:29:37;4.40;99.90
19555;DHT22;9924;50.828;6.440;2023-04-30T04:32:26;4.50;99.90
19555;DHT22;9924;50.828;6.440;2023-04-30T04:35:31;4.60;99.90
19555;DHT22;9924;50.828;6.440;2023-04-30T04:38:25;4.60;99.90
19555;DHT22;9924;50.828;6.440;2023-04-30T04:41:12;4.60;99.90
19555;DHT22;9924;50.828;6.440;2023-04-30T04:44:00;4.60;99.90
19555;DHT22;9924;50.828;6.440;2023-04-30T04:47:02;4.60;99.90
19555;DHT22;9924;50.828;6.440;2023-04-30T04:49:54;4.60;99.90
19555;DHT22;9924;50.828;6.440;2023-04-30T04:52:48;4.60;99.90
19555;DHT22;9924;50.828;6.440;2023-04-30T04:55:37;4.60;99.90
19555;DHT22;9924;50.828;6.440;2023-04-30T04:58:25;4.50;99.90
19555;DHT22;9924;50.828;6.440;2023-04-30T05:01:22;4.60;99.90
19555;DHT22;9924;50.828;6.440;2023-04-30T05:04:07;4.70;99.90
19555;DHT22;9924;50.828;6.440;2023-04-30T05:06:53;4.70;99.90
19555;DHT22;9924;50.828;6.440;2023-04-30T05:09:37;4.70;99.90
19555;DHT22;9924;50.828;6.440;2023-04-30T05:12:23;4.80;99.90
19555;DHT22;9924;50.828;6.440;2023-04-30T05:15:10;4.80;99.90
19555;DHT22;9924;50.828;6.440;2023-04-30T05:17:56;4.90;99.90
19555;DHT22;9924;50.828;6.440;2023-04-30T05:20:46;4.90;99.90
19555;DHT22;9924;50.828;6.440;2023-04-30T05:23:32;5.10;99.90
19555;DHT22;9924;50.828;6.440;2023-04-30T05:26:17;5.20;99.90
19555;DHT22;9924;50.828;6.440;2023-04-30T05:29:02;5.40;99.90
19555;DHT22;9924;50.828;6.440;2023-04-30T05:31:47;5.60;99.90
19555;DHT22;9924;50.828;6.440;2023-04-30T05:34:32;5.60;99.90
19555;DHT22;9924;50.828;6.440;2023-04-30T05:37:18;5.80;99.90
19555;DHT22;9924;50.828;6.440;2023-04-30T05:40:04;5.80;99.90
19555;DHT22;9924;50.828;6.440;2023-04-30T05:43:03;5.90;99.90
19555;DHT22;9924;50.828;6.440;2023-04-30T05:45:49;6.00;99.90
19555;DHT22;9924;50.828;6.440;2023-04-30T05:48:39;6.10;99.90
19555;DHT22;9924;50.828;6.440;2023-04-30T05:51:29;6.30;99.90
19555;DHT22;9924;50.828;6.440;2023-04-30T05:54:15;6.40;99.90
19555;DHT22;9924;50.828;6.440;2023-04-30T05:57:00;6.60;99.90
19555;DHT22;9924;50.828;6.440;2023-04-30T05:59:45;6.80;99.90
19555;DHT22;9924;50.828;6.440;2023-04-30T06:02:36;6.90;99.90
19555;DHT22;9924;50.828;6.440;2023-04-30T06:05:21;7.10;99.90
19555;DHT22;9924;50.828;6.440;2023-04-30T06:08:17;7.30;99.90
19555;DHT22;9924;50.828;6.440;2023-04-30T06:11:06;7.40;99.90
19555;DHT22;9924;50.828;6.440;2023-04-30T06:13:51;7.70;99.90
19555;DHT22;9924;50.828;6.440;2023-04-30T06:16:42;7.90;99.90
19555;DHT22;9924;50.828;6.440;2023-04-30T06:19:27;8.20;99.90
19555;DHT22;9924;50.828;6.440;2023-04-30T06:22:13;8.50;99.90
19555;DHT22;9924;50.828;6.440;2023-04-30T06:24:58;8.70;99.90
19555;DHT22;9924;50.828;6.440;2023-04-30T06:27:47;9.00;99.90
19555;DHT22;9924;50.828;6.440;2023-04-30T06:30:42;9.40;99.90
19555;DHT22;9924;50.828;6.440;2023-04-30T06:33:27;9.80;99.90
19555;DHT22;9924;50.828;6.440;2023-04-30T06:36:12;10.10;99.90
19555;DHT22;9924;50.828;6.440;2023-04-30T06:38:57;10.40;99.90
19555;DHT22;9924;50.828;6.440;2023-04-30T06:41:42;10.70;99.90
19555;DHT22;9924;50.828;6.440;2023-04-30T06:44:44;11.00;99.90
19555;DHT22;9924;50.828;6.440;2023-04-30T06:47:34;11.30;99.90
19555;DHT22;9924;50.828;6.440;2023-04-30T06:50:24;11.70;99.90
19555;DHT22;9924;50.828;6.440;2023-04-30T06:53:13;11.80;99.90
19555;DHT22;9924;50.828;6.440;2023-04-30T06:56:01;12.00;99.90
19555;DHT22;9924;50.828;6.440;2023-04-30T06:58:47;12.20;99.90
19555;DHT22;9924;50.828;6.440;2023-04-30T07:01:40;12.20;99.90
19555;DHT22;9924;50.828;6.440;2023-04-30T07:04:28;12.40;99.90
19555;DHT22;9924;50.828;6.440;2023-04-30T07:07:21;12.70;99.90
19555;DHT22;9924;50.828;6.440;2023-04-30T07:10:06;12.80;99.90
19555;DHT22;9924;50.828;6.440;2023-04-30T07:12:56;13.00;99.90
19555;DHT22;9924;50.828;6.440;2023-04-30T07:16:06;13.20;99.90
19555;DHT22;9924;50.828;6.440;2023-04-30T07:18:53;13.20;99.90
19555;DHT22;9924;50.828;6.440;2023-04-30T07:21:37;13.10;99.90
19555;DHT22;9924;50.828;6.440;2023-04-30T07:24:22;13.30;99.90
19555;DHT22;9924;50.828;6.440;2023-04-30T07:27:10;13.60;99.90
19555;DHT22;9924;50.828;6.440;2023-04-30T07:29:59;13.70;99.90
19555;DHT22;9924;50.828;6.440;2023-04-30T07:32:51;13.80;99.90
19555;DHT22;9924;50.828;6.440;2023-04-30T07:36:02;14.00;99.90
19555;DHT22;9924;50.828;6.440;2023-04-30T07:38:52;14.40;99.90
19555;DHT22;9924;50.828;6.440;2023-04-30T07:41:41;14.80;99.90
19555;DHT22;9924;50.828;6.440;2023-04-30T07:44:30;15.00;99.90
19555;DHT22;9924;50.828;6.440;2023-04-30T07:47:23;15.30;99.90
19555;DHT22;9924;50.828;6.440;2023-04-30T07:50:09;15.30;99.90
19555;DHT22;9924;50.828;6.440;2023-04-30T07:52:59;15.40;99.90
19555;DHT22;9924;50.828;6.440;2023-04-30T07:55:45;15.60;99.90
19555;DHT22;9924;50.828;6.440;2023-04-30T07:58:29;15.70;99.90
19555;DHT22;9924;50.828;6.440;2023-04-30T08:01:16;15.30;99.90
19555;DHT22;9924;50.828;6.440;2023-04-30T08:04:02;15.20;99.90
19555;DHT22;9924;50.828;6.440;2023-04-30T08:06:50;15.40;99.90
19555;DHT22;9924;50.828;6.440;2023-04-30T08:09:34;15.40;99.90
19555;DHT22;9924;50.828;6.440;2023-04-30T08:12:19;15.80;99.90
19555;DHT22;9924;50.828;6.440;2023-04-30T08:15:06;16.10;99.90
19555;DHT22;9924;50.828;6.440;2023-04-30T08:17:51;16.40;99.90
19555;DHT22;9924;50.828;6.440;2023-04-30T08:20:36;16.60;99.90
19555;DHT22;9924;50.828;6.440;2023-04-30T08:23:22;16.40;99.90
19555;DHT22;9924;50.828;6.440;2023-04-30T08:26:07;16.60;99.90
19555;DHT22;9924;50.828;6.440;2023-04-30T08:29:01;16.60;99.90
19555;DHT22;9924;50.828;6.440;2023-04-30T08:31:45;16.90;99.90
19555;DHT22;9924;50.828;6.440;2023-04-30T08:34:31;17.10;99.90
19555;DHT22;9924;50.828;6.440;2023-04-30T08:37:16;17.10;99.90
19555;DHT22;9924;50.828;6.440;2023-04-30T08:40:01;17.30;99.90
19555;DHT22;9924;50.828;6.440;2023-04-30T08:42:57;17.40;99.90
19555;DHT22;9924;50.828;6.440;2023-04-30T08:45:48;17.50;99.90
19555;DHT22;9924;50.828;6.440;2023-04-30T08:48:35;17.50;99.90
19555;DHT22;9924;50.828;6.440;2023-04-30T08:51:21;17.30;99.90
19555;DHT22;9924;50.828;6.440;2023-04-30T08:54:11;17.40;99.90
19555;DHT22;9924;50.828;6.440;2023-04-30T08:56:58;17.60;99.90
19555;DHT22;9924;50.828;6.440;2023-04-30T08:59:46;17.80;99.90
19555;DHT22;9924;50.828;6.440;2023-04-30T09:02:33;17.80;99.90
19555;DHT22;9924;50.828;6.440;2023-04-30T09:05:17;17.90;99.90
19555;DHT22;9924;50.828;6.440;2023-04-30T09:08:02;18.10;99.90
19555;DHT22;9924;50.828;6.440;2023-04-30T09:10:47;17.90;99.90
19555;DHT22;9924;50.828;6.440;2023-04-30T09:13:41;18.20;99.90
19555;DHT22;9924;50.828;6.440;2023-04-30T09:16:48;18.60;99.90
19555;DHT22;9924;50.828;6.440;2023-04-30T09:19:33;18.40;99.90
19555;DHT22;9924;50.828;6.440;2023-04-30T09:22:22;18.30;99.90
19555;DHT22;9924;50.828;6.440;2023-04-30T09:25:18;18.30;99.90
19555;DHT22;9924;50.828;6.440;2023-04-30T09:28:18;18.10;99.90
19555;DHT22;9924;50.828;6.440;2023-04-30T09:31:19;18.20;99.90
19555;DHT22;9924;50.828;6.440;2023-04-30T09:34:05;18.50;99.90
19555;DHT22;9924;50.828;6.440;2023-04-30T09:36:53;18.80;99.90
19555;DHT22;9924;50.828;6.440;2023-04-30T09:39:53;19.00;99.90
19555;DHT22;9924;50.828;6.440;2023-04-30T09:42:57;19.10;99.90
19555;DHT22;9924;50.828;6.440;2023-04-30T09:45:46;19.10;99.90
19555;DHT22;9924;50.828;6.440;2023-04-30T09:48:34;19.20;99.90
19555;DHT22;9924;50.828;6.440;2023-04-30T09:51:19;19.10;99.90
19555;DHT22;9924;50.828;6.440;2023-04-30T09:54:06;19.10;99.90
19555;DHT22;9924;50.828;6.440;2023-04-30T09:57:00;19.30;99.90
19555;DHT22;9924;50.828;6.440;2023-04-30T09:59:46;19.20;99.90
19555;DHT22;9924;50.828;6.440;2023-04-30T10:02:33;19.10;99.90
19555;DHT22;9924;50.828;6.440;2023-04-30T10:05:21;19.20;99.90
19555;DHT22;9924;50.828;6.440;2023-04-30T10:11:38;19.60;99.90
19555;DHT22;9924;50.828;6.440;2023-04-30T10:14:30;19.60;99.90
19555;DHT22;9924;50.828;6.440;2023-04-30T10:17:27;19.50;99.90
19555;DHT22;9924;50.828;6.440;2023-04-30T10:20:16;19.30;99.90
19555;DHT22;9924;50.828;6.440;2023-04-30T10:23:06;19.30;99.90
19555;DHT22;9924;50.828;6.440;2023-04-30T10:25:52;19.60;99.90
19555;DHT22;9924;50.828;6.440;2023-04-30T10:28:42;19.80;99.90
19555;DHT22;9924;50.828;6.440;2023-04-30T10:31:26;20.00;99.90
19555;DHT22;9924;50.828;6.440;2023-04-30T10:34:18;20.50;99.90
19555;DHT22;9924;50.828;6.440;2023-04-30T10:40:12;20.70;99.90
19555;DHT22;9924;50.828;6.440;2023-04-30T10:42:58;20.90;99.90
19555;DHT22;9924;50.828;6.440;2023-04-30T10:45:43;21.00;99.90
19555;DHT22;9924;50.828;6.440;2023-04-30T10:48:28;21.10;99.70
19555;DHT22;9924;50.828;6.440;2023-04-30T10:51:19;21.30;97.80
19555;DHT22;9924;50.828;6.440;2023-04-30T10:54:08;21.80;97.40
19555;DHT22;9924;50.828;6.440;2023-04-30T10:57:13;21.60;99.90
19555;DHT22;9924;50.828;6.440;2023-04-30T11:03:13;22.20;98.80
19555;DHT22;9924;50.828;6.440;2023-04-30T11:06:12;21.90;99.90
19555;DHT22;9924;50.828;6.440;2023-04-30T11:09:04;21.50;99.90
19555;DHT22;9924;50.828;6.440;2023-04-30T11:12:15;20.60;99.90
19555;DHT22;9924;50.828;6.440;2023-04-30T11:15:33;20.90;99.90
19555;DHT22;9924;50.828;6.440;2023-04-30T11:18:19;21.50;99.90
19555;DHT22;9924;50.828;6.440;2023-04-30T11:21:12;21.40;98.70
19555;DHT22;9924;50.828;6.440;2023-04-30T11:24:03;21.00;99.30
19555;DHT22;9924;50.828;6.440;2023-04-30T11:27:07;21.00;99.90
19555;DHT22;9924;50.828;6.440;2023-04-30T11:29:57;20.70;99.90
19555;DHT22;9924;50.828;6.440;2023-04-30T11:32:49;20.80;98.80
19555;DHT22;9924;50.828;6.440;2023-04-30T11:35:37;21.80;99.90
19555;DHT22;9924;50.828;6.440;2023-04-30T11:38:28;22.10;99.90
19555;DHT22;9924;50.828;6.440;2023-04-30T11:41:13;22.20;98.60
19555;DHT22;9924;50.828;6.440;2023-04-30T11:44:01;22.70;95.90
19555;DHT22;9924;50.828;6.440;2023-04-30T11:46:46;22.60;97.80
19555;DHT22;9924;50.828;6.440;2023-04-30T11:49:45;22.40;96.80
19555;DHT22;9924;50.828;6.440;2023-04-30T11:52:33;22.50;96.30
19555;DHT22;9924;50.828;6.440;2023-04-30T11:55:30;23.10;96.30
19555;DHT22;9924;50.828;6.440;2023-04-30T11:58:15;22.90;93.40
19555;DHT22;9924;50.828;6.440;2023-04-30T12:01:21;22.40;95.30
19555;DHT22;9924;50.828;6.440;2023-04-30T12:04:14;22.10;96.20
19555;DHT22;9924;50.828;6.440;2023-04-30T12:07:19;22.70;93.50
19555;DHT22;9924;50.828;6.440;2023-04-30T12:10:13;23.20;92.50
19555;DHT22;9924;50.828;6.440;2023-04-30T12:13:03;23.30;92.90
19555;DHT22;9924;50.828;6.440;2023-04-30T12:16:01;23.90;91.30
19555;DHT22;9924;50.828;6.440;2023-04-30T12:18:48;23.70;91.50
19555;DHT22;9924;50.828;6.440;2023-04-30T12:21:43;23.40;92.70
19555;DHT22;9924;50.828;6.440;2023-04-30T12:24:39;23.90;90.90
19555;DHT22;9924;50.828;6.440;2023-04-30T12:27:26;23.70;91.10
19555;DHT22;9924;50.828;6.440;2023-04-30T12:30:11;23.20;90.30
19555;DHT22;9924;50.828;6.440;2023-04-30T12:33:09;22.30;91.70
19555;DHT22;9924;50.828;6.440;2023-04-30T12:35:59;22.40;92.80
19555;DHT22;9924;50.828;6.440;2023-04-30T12:38:45;23.00;92.90
19555;DHT22;9924;50.828;6.440;2023-04-30T12:41:30;23.10;91.40
19555;DHT22;9924;50.828;6.440;2023-04-30T12:44:27;23.60;93.50
19555;DHT22;9924;50.828;6.440;2023-04-30T12:47:12;23.10;92.70
19555;DHT22;9924;50.828;6.440;2023-04-30T12:49:58;23.30;90.70
19555;DHT22;9924;50.828;6.440;2023-04-30T12:52:43;23.60;91.60
19555;DHT22;9924;50.828;6.440;2023-04-30T12:55:28;23.40;90.00
19555;DHT22;9924;50.828;6.440;2023-04-30T12:58:16;23.40;90.60
19555;DHT22;9924;50.828;6.440;2023-04-30T13:01:09;23.40;91.10
19555;DHT22;9924;50.828;6.440;2023-04-30T13:03:53;23.70;90.40
19555;DHT22;9924;50.828;6.440;2023-04-30T13:06:38;23.30;90.00
19555;DHT22;9924;50.828;6.440;2023-04-30T13:09:26;22.90;91.70
19555;DHT22;9924;50.828;6.440;2023-04-30T13:12:12;22.60;89.50
19555;DHT22;9924;50.828;6.440;2023-04-30T13:15:10;22.20;92.70
19555;DHT22;9924;50.828;6.440;2023-04-30T13:18:01;22.70;94.00
19555;DHT22;9924;50.828;6.440;2023-04-30T13:20:54;23.40;92.10
19555;DHT22;9924;50.828;6.440;2023-04-30T13:23:42;23.90;90.70
19555;DHT22;9924;50.828;6.440;2023-04-30T13:26:27;23.40;90.90
19555;DHT22;9924;50.828;6.440;2023-04-30T13:29:14;23.00;92.10
19555;DHT22;9924;50.828;6.440;2023-04-30T13:32:01;23.10;91.40
19555;DHT22;9924;50.828;6.440;2023-04-30T13:35:04;22.60;92.80
19555;DHT22;9924;50.828;6.440;2023-04-30T13:37:53;22.60;91.50
19555;DHT22;9924;50.828;6.440;2023-04-30T13:40:48;22.40;92.10
19555;DHT22;9924;50.828;6.440;2023-04-30T13:43:35;22.90;91.50
19555;DHT22;9924;50.828;6.440;2023-04-30T13:46:50;23.10;92.40
19555;DHT22;9924;50.828;6.440;2023-04-30T13:49:36;23.00;91.50
19555;DHT22;9924;50.828;6.440;2023-04-30T13:52:22;22.20;93.90
19555;DHT22;9924;50.828;6.440;2023-04-30T13:55:14;21.30;93.90
19555;DHT22;9924;50.828;6.440;2023-04-30T13:57:58;20.90;95.90
19555;DHT22;9924;50.828;6.440;2023-04-30T14:00:47;20.70;96.80
19555;DHT22;9924;50.828;6.440;2023-04-30T14:03:50;21.30;95.30
19555;DHT22;9924;50.828;6.440;2023-04-30T14:06:35;22.40;92.20
19555;DHT22;9924;50.828;6.440;2023-04-30T14:09:22;22.60;91.00
19555;DHT22;9924;50.828;6.440;2023-04-30T14:12:08;22.10;93.80
19555;DHT22;9924;50.828;6.440;2023-04-30T14:14:53;22.30;91.70
19555;DHT22;9924;50.828;6.440;2023-04-30T14:17:39;23.10;91.10
19555;DHT22;9924;50.828;6.440;2023-04-30T14:20:23;24.00;89.40
19555;DHT22;9924;50.828;6.440;2023-04-30T14:23:13;24.20;88.80
19555;DHT22;9924;50.828;6.440;2023-04-30T14:26:07;24.20;86.40
19555;DHT22;9924;50.828;6.440;2023-04-30T14:28:55;24.10;89.50
19555;DHT22;9924;50.828;6.440;2023-04-30T14:31:44;24.20;86.90
19555;DHT22;9924;50.828;6.440;2023-04-30T14:34:30;24.00;86.50
19555;DHT22;9924;50.828;6.440;2023-04-30T14:37:15;23.40;89.90
19555;DHT22;9924;50.828;6.440;2023-04-30T14:40:01;24.00;86.40
19555;DHT22;9924;50.828;6.440;2023-04-30T14:42:46;24.50;87.20
19555;DHT22;9924;50.828;6.440;2023-04-30T14:45:36;24.30;88.30
19555;DHT22;9924;50.828;6.440;2023-04-30T14:48:24;25.00;86.30
19555;DHT22;9924;50.828;6.440;2023-04-30T14:51:10;24.90;83.00
19555;DHT22;9924;50.828;6.440;2023-04-30T14:53:57;24.60;85.20
19555;DHT22;9924;50.828;6.440;2023-04-30T14:56:48;23.90;84.20
19555;DHT22;9924;50.828;6.440;2023-04-30T14:59:39;23.60;85.30
19555;DHT22;9924;50.828;6.440;2023-04-30T15:02:33;23.50;87.70
19555;DHT22;9924;50.828;6.440;2023-04-30T15:05:19;24.20;90.00
19555;DHT22;9924;50.828;6.440;2023-04-30T15:08:04;25.20;83.00
19555;DHT22;9924;50.828;6.440;2023-04-30T15:11:10;24.80;80.20
19555;DHT22;9924;50.828;6.440;2023-04-30T15:13:59;24.10;81.90
19555;DHT22;9924;50.828;6.440;2023-04-30T15:16:46;23.00;83.60
19555;DHT22;9924;50.828;6.440;2023-04-30T15:19:39;22.20;87.90
19555;DHT22;9924;50.828;6.440;2023-04-30T15:22:27;21.70;87.60
19555;DHT22;9924;50.828;6.440;2023-04-30T15:25:13;21.20;91.80
19555;DHT22;9924;50.828;6.440;2023-04-30T15:28:09;21.10;91.00
19555;DHT22;9924;50.828;6.440;2023-04-30T15:31:02;20.90;90.50
19555;DHT22;9924;50.828;6.440;2023-04-30T15:33:47;20.60;91.40
19555;DHT22;9924;50.828;6.440;2023-04-30T15:36:35;20.40;91.40
19555;DHT22;9924;50.828;6.440;2023-04-30T15:39:20;20.20;93.10
19555;DHT22;9924;50.828;6.440;2023-04-30T15:42:06;20.20;92.30
19555;DHT22;9924;50.828;6.440;2023-04-30T15:44:56;20.60;92.70
19555;DHT22;9924;50.828;6.440;2023-04-30T15:47:45;21.10;91.80
19555;DHT22;9924;50.828;6.440;2023-04-30T15:50:29;21.60;91.40
19555;DHT22;9924;50.828;6.440;2023-04-30T15:53:18;22.10;89.80
19555;DHT22;9924;50.828;6.440;2023-04-30T15:56:06;22.80;90.00
19555;DHT22;9924;50.828;6.440;2023-04-30T15:58:52;23.50;86.60
19555;DHT22;9924;50.828;6.440;2023-04-30T16:01:38;24.00;82.20
19555;DHT22;9924;50.828;6.440;2023-04-30T16:04:25;23.30;87.10
19555;DHT22;9924;50.828;6.440;2023-04-30T16:07:10;23.50;85.10
19555;DHT22;9924;50.828;6.440;2023-04-30T16:09:58;23.80;82.60
19555;DHT22;9924;50.828;6.440;2023-04-30T16:12:45;23.90;84.20
19555;DHT22;9924;50.828;6.440;2023-04-30T16:15:30;23.10;86.00
19555;DHT22;9924;50.828;6.440;2023-04-30T16:18:29;22.90;86.70
19555;DHT22;9924;50.828;6.440;2023-04-30T16:21:15;23.10;88.20
19555;DHT22;9924;50.828;6.440;2023-04-30T16:24:00;23.40;85.00
19555;DHT22;9924;50.828;6.440;2023-04-30T16:26:45;23.40;85.30
19555;DHT22;9924;50.828;6.440;2023-04-30T16:29:30;23.40;84.80
19555;DHT22;9924;50.828;6.440;2023-04-30T16:32:17;23.20;85.80
19555;DHT22;9924;50.828;6.440;2023-04-30T16:35:03;22.80;89.10
19555;DHT22;9924;50.828;6.440;2023-04-30T16:37:49;22.30;90.30
19555;DHT22;9924;50.828;6.440;2023-04-30T16:40:33;21.80;91.90
19555;DHT22;9924;50.828;6.440;2023-04-30T16:43:19;21.20;92.70
19555;DHT22;9924;50.828;6.440;2023-04-30T16:46:04;20.90;93.70
19555;DHT22;9924;50.828;6.440;2023-04-30T16:48:53;20.60;94.50
19555;DHT22;9924;50.828;6.440;2023-04-30T16:51:38;20.50;94.70
19555;DHT22;9924;50.828;6.440;2023-04-30T16:54:23;20.30;95.50
19555;DHT22;9924;50.828;6.440;2023-04-30T16:57:11;19.90;97.00
19555;DHT22;9924;50.828;6.440;2023-04-30T17:00:00;19.70;98.10
19555;DHT22;9924;50.828;6.440;2023-04-30T17:02:49;19.60;99.60
19555;DHT22;9924;50.828;6.440;2023-04-30T17:05:36;19.70;99.40
19555;DHT22;9924;50.828;6.440;2023-04-30T17:08:21;19.90;98.60
19555;DHT22;9924;50.828;6.440;2023-04-30T17:11:06;19.90;98.80
19555;DHT22;9924;50.828;6.440;2023-04-30T17:13:54;19.90;99.20
19555;DHT22;9924;50.828;6.440;2023-04-30T17:16:51;20.00;98.70
19555;DHT22;9924;50.828;6.440;2023-04-30T17:19:36;20.20;98.70
19555;DHT22;9924;50.828;6.440;2023-04-30T17:22:21;20.10;98.50
19555;DHT22;9924;50.828;6.440;2023-04-30T17:25:07;19.90;99.10
19555;DHT22;9924;50.828;6.440;2023-04-30T17:27:55;19.60;99.90
19555;DHT22;9924;50.828;6.440;2023-04-30T17:31:25;19.30;99.90
19555;DHT22;9924;50.828;6.440;2023-04-30T17:34:09;18.80;99.90
19555;DHT22;9924;50.828;6.440;2023-04-30T17:36:56;18.50;99.90
19555;DHT22;9924;50.828;6.440;2023-04-30T17:39:51;18.30;99.90
19555;DHT22;9924;50.828;6.440;2023-04-30T17:42:39;18.10;99.90
19555;DHT22;9924;50.828;6.440;2023-04-30T17:45:24;18.00;99.90
19555;DHT22;9924;50.828;6.440;2023-04-30T17:48:10;17.90;99.90
19555;DHT22;9924;50.828;6.440;2023-04-30T17:50:55;17.80;99.90
19555;DHT22;9924;50.828;6.440;2023-04-30T17:53:39;17.70;99.90
19555;DHT22;9924;50.828;6.440;2023-04-30T17:56:28;17.50;99.90
19555;DHT22;9924;50.828;6.440;2023-04-30T17:59:18;17.50;99.90
19555;DHT22;9924;50.828;6.440;2023-04-30T18:02:03;17.40;99.90
19555;DHT22;9924;50.828;6.440;2023-04-30T18:04:50;17.30;99.90
19555;DHT22;9924;50.828;6.440;2023-04-30T18:07:35;17.30;99.90
19555;DHT22;9924;50.828;6.440;2023-04-30T18:10:20;17.20;99.90
19555;DHT22;9924;50.828;6.440;2023-04-30T18:13:09;17.00;99.90
19555;DHT22;9924;50.828;6.440;2023-04-30T18:16:02;17.00;99.90
19555;DHT22;9924;50.828;6.440;2023-04-30T18:18:49;16.90;99.90
19555;DHT22;9924;50.828;6.440;2023-04-30T18:21:35;16.80;99.90
19555;DHT22;9924;50.828;6.440;2023-04-30T18:24:20;16.70;99.90
19555;DHT22;9924;50.828;6.440;2023-04-30T18:27:10;16.70;99.90
19555;DHT22;9924;50.828;6.440;2023-04-30T18:29:59;16.60;99.90
19555;DHT22;9924;50.828;6.440;2023-04-30T18:32:49;16.60;99.90
19555;DHT22;9924;50.828;6.440;2023-04-30T18:35:45;16.50;99.90
19555;DHT22;9924;50.828;6.440;2023-04-30T18:38:36;16.50;99.90
19555;DHT22;9924;50.828;6.440;2023-04-30T18:41:28;16.40;99.90
19555;DHT22;9924;50.828;6.440;2023-04-30T18:44:13;16.40;99.90
19555;DHT22;9924;50.828;6.440;2023-04-30T18:46:57;16.30;99.90
19555;DHT22;9924;50.828;6.440;2023-04-30T18:49:42;16.20;99.90
19555;DHT22;9924;50.828;6.440;2023-04-30T18:52:28;16.10;99.90